sensor_id;sensor_type;location;lat;lon;timestamp;P1;durP1;ratioP1;P2;durP2;ratioP2
53594;SDS011;39479;45.720;11.310;2023-09-19T00:01:08;10.40;;;6.25;;
53594;SDS011;39479;45.720;11.310;2023-09-19T00:03:37;10.02;;;5.80;;
53594;SDS011;39479;45.720;11.310;2023-09-19T00:06:04;9.93;;;5.85;;
53594;SDS011;39479;45.720;11.310;2023-09-19T00:08:32;14.02;;;6.32;;
53594;SDS011;39479;45.720;11.310;2023-09-19T00:10:59;15.38;;;6.50;;
53594;SDS011;39479;45.720;11.310;2023-09-19T00:13:29;9.73;;;5.70;;
53594;SDS011;39479;45.720;11.310;2023-09-19T00:15:55;11.30;;;5.78;;
53594;SDS011;39479;45.720;11.310;2023-09-19T00:18:24;12.90;;;5.90;;
53594;SDS011;39479;45.720;11.310;2023-09-19T00:21:00;10.85;;;5.50;;
53594;SDS011;39479;45.720;11.310;2023-09-19T00:23:27;10.02;;;5.47;;
53594;SDS011;39479;45.720;11.310;2023-09-19T00:25:53;9.07;;;5.60;;
53594;SDS011;39479;45.720;11.310;2023-09-19T00:28:22;12.50;;;6.00;;
53594;SDS011;39479;45.720;11.310;2023-09-19T00:30:48;8.38;;;4.75;;
53594;SDS011;39479;45.720;11.310;2023-09-19T00:33:20;10.68;;;5.28;;
53594;SDS011;39479;45.720;11.310;2023-09-19T00:35:49;14.13;;;4.90;;
53594;SDS011;39479;45.720;11.310;2023-09-19T00:38:15;14.07;;;4.70;;
53594;SDS011;39479;45.720;11.310;2023-09-19T00:40:45;7.90;;;4.72;;
53594;SDS011;39479;45.720;11.310;2023-09-19T00:43:11;7.47;;;4.95;;
53594;SDS011;39479;45.720;11.310;2023-09-19T00:45:38;11.98;;;4.78;;
53594;SDS011;39479;45.720;11.310;2023-09-19T00:48:06;9.02;;;4.65;;
53594;SDS011;39479;45.720;11.310;2023-09-19T00:50:34;8.77;;;4.50;;
53594;SDS011;39479;45.720;11.310;2023-09-19T00:53:00;9.70;;;5.30;;
53594;SDS011;39479;45.720;11.310;2023-09-19T00:55:32;7.57;;;4.47;;
53594;SDS011;39479;45.720;11.310;2023-09-19T00:57:59;8.70;;;4.53;;
53594;SDS011;39479;45.720;11.310;2023-09-19T01:00:26;9.15;;;4.25;;
53594;SDS011;39479;45.720;11.310;2023-09-19T01:02:52;12.73;;;5.03;;
53594;SDS011;39479;45.720;11.310;2023-09-19T01:05:18;9.25;;;4.47;;
53594;SDS011;39479;45.720;11.310;2023-09-19T01:07:44;8.65;;;4.50;;
53594;SDS011;39479;45.720;11.310;2023-09-19T01:10:14;8.82;;;4.13;;
53594;SDS011;39479;45.720;11.310;2023-09-19T01:30:56;11.27;;;4.50;;
53594;SDS011;39479;45.720;11.310;2023-09-19T01:33:24;9.20;;;4.40;;
53594;SDS011;39479;45.720;11.310;2023-09-19T01:35:51;7.82;;;4.20;;
53594;SDS011;39479;45.720;11.310;2023-09-19T01:38:18;6.70;;;4.18;;
53594;SDS011;39479;45.720;11.310;2023-09-19T01:40:47;8.25;;;3.97;;
53594;SDS011;39479;45.720;11.310;2023-09-19T01:43:20;10.15;;;4.22;;
53594;SDS011;39479;45.720;11.310;2023-09-19T01:45:57;7.47;;;4.10;;
53594;SDS011;39479;45.720;11.310;2023-09-19T01:48:25;8.50;;;4.22;;
53594;SDS011;39479;45.720;11.310;2023-09-19T01:51:03;9.18;;;4.18;;
53594;SDS011;39479;45.720;11.310;2023-09-19T01:53:35;8.93;;;4.45;;
53594;SDS011;39479;45.720;11.310;2023-09-19T01:56:02;11.20;;;4.65;;
53594;SDS011;39479;45.720;11.310;2023-09-19T01:58:35;7.82;;;4.47;;
53594;SDS011;39479;45.720;11.310;2023-09-19T02:01:04;8.45;;;4.57;;
53594;SDS011;39479;45.720;11.310;2023-09-19T02:03:31;13.88;;;4.50;;
53594;SDS011;39479;45.720;11.310;2023-09-19T02:05:57;8.90;;;4.53;;
53594;SDS011;39479;45.720;11.310;2023-09-19T02:08:23;8.50;;;4.40;;
53594;SDS011;39479;45.720;11.310;2023-09-19T02:10:49;11.15;;;4.25;;
53594;SDS011;39479;45.720;11.310;2023-09-19T02:13:16;8.93;;;4.20;;
53594;SDS011;39479;45.720;11.310;2023-09-19T02:15:42;8.40;;;4.07;;
53594;SDS011;39479;45.720;11.310;2023-09-19T02:18:12;13.30;;;4.70;;
53594;SDS011;39479;45.720;11.310;2023-09-19T02:20:38;8.27;;;4.45;;
53594;SDS011;39479;45.720;11.310;2023-09-19T02:23:05;10.38;;;4.60;;
53594;SDS011;39479;45.720;11.310;2023-09-19T02:25:31;6.20;;;4.45;;
53594;SDS011;39479;45.720;11.310;2023-09-19T02:27:57;6.22;;;4.05;;
53594;SDS011;39479;45.720;11.310;2023-09-19T02:30:24;11.05;;;4.00;;
53594;SDS011;39479;45.720;11.310;2023-09-19T02:32:51;11.75;;;4.32;;
53594;SDS011;39479;45.720;11.310;2023-09-19T02:35:17;7.13;;;3.70;;
53594;SDS011;39479;45.720;11.310;2023-09-19T02:37:46;7.60;;;4.07;;
53594;SDS011;39479;45.720;11.310;2023-09-19T02:40:13;11.13;;;5.25;;
53594;SDS011;39479;45.720;11.310;2023-09-19T02:42:49;8.27;;;4.60;;
53594;SDS011;39479;45.720;11.310;2023-09-19T02:45:18;11.48;;;4.28;;
53594;SDS011;39479;45.720;11.310;2023-09-19T02:47:44;12.23;;;4.70;;
53594;SDS011;39479;45.720;11.310;2023-09-19T02:50:11;12.07;;;3.80;;
53594;SDS011;39479;45.720;11.310;2023-09-19T02:52:37;6.38;;;4.13;;
53594;SDS011;39479;45.720;11.310;2023-09-19T02:55:03;9.57;;;3.97;;
53594;SDS011;39479;45.720;11.310;2023-09-19T02:57:34;8.45;;;4.13;;
53594;SDS011;39479;45.720;11.310;2023-09-19T03:00:01;7.05;;;4.30;;
53594;SDS011;39479;45.720;11.310;2023-09-19T03:02:27;9.95;;;4.15;;
53594;SDS011;39479;45.720;11.310;2023-09-19T03:04:57;9.90;;;3.80;;
53594;SDS011;39479;45.720;11.310;2023-09-19T03:07:25;6.18;;;4.07;;
53594;SDS011;39479;45.720;11.310;2023-09-19T03:09:51;7.13;;;4.30;;
53594;SDS011;39479;45.720;11.310;2023-09-19T03:12:18;10.40;;;4.45;;
53594;SDS011;39479;45.720;11.310;2023-09-19T03:14:44;7.78;;;4.43;;
53594;SDS011;39479;45.720;11.310;2023-09-19T03:17:10;10.70;;;4.50;;
53594;SDS011;39479;45.720;11.310;2023-09-19T03:19:39;9.80;;;4.57;;
53594;SDS011;39479;45.720;11.310;2023-09-19T03:22:05;10.80;;;4.45;;
53594;SDS011;39479;45.720;11.310;2023-09-19T03:24:32;12.10;;;4.15;;
53594;SDS011;39479;45.720;11.310;2023-09-19T03:27:00;10.65;;;4.00;;
53594;SDS011;39479;45.720;11.310;2023-09-19T03:29:26;7.55;;;3.50;;
53594;SDS011;39479;45.720;11.310;2023-09-19T03:31:52;8.32;;;4.05;;
53594;SDS011;39479;45.720;11.310;2023-09-19T03:34:19;10.88;;;3.80;;
53594;SDS011;39479;45.720;11.310;2023-09-19T03:36:45;11.82;;;3.78;;
53594;SDS011;39479;45.720;11.310;2023-09-19T03:39:12;6.72;;;3.65;;
53594;SDS011;39479;45.720;11.310;2023-09-19T03:41:40;8.55;;;3.70;;
53594;SDS011;39479;45.720;11.310;2023-09-19T03:44:06;9.05;;;3.67;;
53594;SDS011;39479;45.720;11.310;2023-09-19T03:46:32;9.00;;;3.95;;
53594;SDS011;39479;45.720;11.310;2023-09-19T03:49:00;13.73;;;5.13;;
53594;SDS011;39479;45.720;11.310;2023-09-19T03:51:26;9.07;;;4.35;;
53594;SDS011;39479;45.720;11.310;2023-09-19T03:53:52;8.48;;;3.83;;
53594;SDS011;39479;45.720;11.310;2023-09-19T03:56:18;10.18;;;4.22;;
53594;SDS011;39479;45.720;11.310;2023-09-19T03:58:44;8.85;;;4.18;;
53594;SDS011;39479;45.720;11.310;2023-09-19T04:01:10;10.00;;;3.95;;
53594;SDS011;39479;45.720;11.310;2023-09-19T04:03:38;7.72;;;4.05;;
53594;SDS011;39479;45.720;11.310;2023-09-19T04:06:13;7.50;;;4.18;;
53594;SDS011;39479;45.720;11.310;2023-09-19T04:08:40;8.75;;;3.95;;
53594;SDS011;39479;45.720;11.310;2023-09-19T04:11:06;7.88;;;3.63;;
53594;SDS011;39479;45.720;11.310;2023-09-19T04:13:32;10.23;;;3.70;;
53594;SDS011;39479;45.720;11.310;2023-09-19T04:15:58;7.40;;;3.85;;
53594;SDS011;39479;45.720;11.310;2023-09-19T04:18:24;6.05;;;3.80;;
53594;SDS011;39479;45.720;11.310;2023-09-19T04:20:50;7.72;;;4.00;;
53594;SDS011;39479;45.720;11.310;2023-09-19T04:23:17;10.18;;;3.72;;
53594;SDS011;39479;45.720;11.310;2023-09-19T04:25:45;8.30;;;4.22;;
53594;SDS011;39479;45.720;11.310;2023-09-19T04:28:11;8.10;;;4.43;;
53594;SDS011;39479;45.720;11.310;2023-09-19T04:30:37;7.03;;;3.92;;
53594;SDS011;39479;45.720;11.310;2023-09-19T04:33:06;7.10;;;4.28;;
53594;SDS011;39479;45.720;11.310;2023-09-19T04:35:32;10.35;;;4.28;;
53594;SDS011;39479;45.720;11.310;2023-09-19T04:37:59;8.38;;;4.05;;
53594;SDS011;39479;45.720;11.310;2023-09-19T04:40:25;10.57;;;3.95;;
53594;SDS011;39479;45.720;11.310;2023-09-19T04:42:54;12.60;;;4.32;;
53594;SDS011;39479;45.720;11.310;2023-09-19T04:45:27;10.95;;;4.65;;
53594;SDS011;39479;45.720;11.310;2023-09-19T04:47:53;7.03;;;4.13;;
53594;SDS011;39479;45.720;11.310;2023-09-19T04:50:19;6.25;;;3.47;;
53594;SDS011;39479;45.720;11.310;2023-09-19T04:52:51;8.05;;;4.10;;
53594;SDS011;39479;45.720;11.310;2023-09-19T04:55:18;10.57;;;4.18;;
53594;SDS011;39479;45.720;11.310;2023-09-19T04:57:45;8.82;;;4.07;;
53594;SDS011;39479;45.720;11.310;2023-09-19T05:00:16;7.65;;;3.80;;
53594;SDS011;39479;45.720;11.310;2023-09-19T05:02:43;9.65;;;4.10;;
53594;SDS011;39479;45.720;11.310;2023-09-19T05:05:10;7.72;;;3.50;;
53594;SDS011;39479;45.720;11.310;2023-09-19T05:07:37;7.57;;;3.70;;
53594;SDS011;39479;45.720;11.310;2023-09-19T05:10:03;13.93;;;4.75;;
53594;SDS011;39479;45.720;11.310;2023-09-19T05:12:35;6.65;;;4.63;;
53594;SDS011;39479;45.720;11.310;2023-09-19T05:15:02;7.57;;;3.85;;
53594;SDS011;39479;45.720;11.310;2023-09-19T05:17:28;8.30;;;3.55;;
53594;SDS011;39479;45.720;11.310;2023-09-19T05:19:54;6.47;;;3.70;;
53594;SDS011;39479;45.720;11.310;2023-09-19T05:22:20;7.82;;;3.92;;
53594;SDS011;39479;45.720;11.310;2023-09-19T05:24:46;7.55;;;3.60;;
53594;SDS011;39479;45.720;11.310;2023-09-19T05:27:16;9.05;;;3.67;;
53594;SDS011;39479;45.720;11.310;2023-09-19T05:29:45;6.85;;;3.13;;
53594;SDS011;39479;45.720;11.310;2023-09-19T05:32:11;12.95;;;4.60;;
53594;SDS011;39479;45.720;11.310;2023-09-19T05:34:37;6.30;;;3.10;;
53594;SDS011;39479;45.720;11.310;2023-09-19T05:37:03;8.23;;;2.85;;
53594;SDS011;39479;45.720;11.310;2023-09-19T05:39:32;6.35;;;2.90;;
53594;SDS011;39479;45.720;11.310;2023-09-19T05:41:58;5.82;;;2.85;;
53594;SDS011;39479;45.720;11.310;2023-09-19T05:44:25;6.15;;;3.10;;
53594;SDS011;39479;45.720;11.310;2023-09-19T05:46:51;3.85;;;2.72;;
53594;SDS011;39479;45.720;11.310;2023-09-19T05:49:17;5.30;;;2.60;;
53594;SDS011;39479;45.720;11.310;2023-09-19T05:51:46;7.32;;;2.50;;
53594;SDS011;39479;45.720;11.310;2023-09-19T05:54:12;7.25;;;2.42;;
53594;SDS011;39479;45.720;11.310;2023-09-19T05:56:38;6.10;;;2.60;;
53594;SDS011;39479;45.720;11.310;2023-09-19T05:59:04;7.25;;;2.78;;
53594;SDS011;39479;45.720;11.310;2023-09-19T06:01:30;6.20;;;2.53;;
53594;SDS011;39479;45.720;11.310;2023-09-19T06:03:59;5.32;;;2.30;;
53594;SDS011;39479;45.720;11.310;2023-09-19T06:06:25;6.82;;;2.47;;
53594;SDS011;39479;45.720;11.310;2023-09-19T06:08:51;5.30;;;2.53;;
53594;SDS011;39479;45.720;11.310;2023-09-19T06:11:17;4.85;;;2.58;;
53594;SDS011;39479;45.720;11.310;2023-09-19T06:13:45;4.88;;;2.60;;
53594;SDS011;39479;45.720;11.310;2023-09-19T06:16:12;6.57;;;3.30;;
53594;SDS011;39479;45.720;11.310;2023-09-19T06:18:38;8.15;;;3.15;;
53594;SDS011;39479;45.720;11.310;2023-09-19T06:21:04;4.88;;;2.70;;
53594;SDS011;39479;45.720;11.310;2023-09-19T06:23:33;5.72;;;2.47;;
53594;SDS011;39479;45.720;11.310;2023-09-19T06:25:59;6.45;;;2.60;;
53594;SDS011;39479;45.720;11.310;2023-09-19T06:28:25;4.97;;;2.83;;
53594;SDS011;39479;45.720;11.310;2023-09-19T06:30:53;6.53;;;3.00;;
53594;SDS011;39479;45.720;11.310;2023-09-19T06:33:19;5.45;;;2.58;;
53594;SDS011;39479;45.720;11.310;2023-09-19T06:35:46;3.97;;;2.25;;
53594;SDS011;39479;45.720;11.310;2023-09-19T06:38:13;5.28;;;2.30;;
53594;SDS011;39479;45.720;11.310;2023-09-19T06:40:40;5.40;;;2.72;;
53594;SDS011;39479;45.720;11.310;2023-09-19T06:43:09;5.55;;;2.67;;
53594;SDS011;39479;45.720;11.310;2023-09-19T06:45:35;5.63;;;2.60;;
53594;SDS011;39479;45.720;11.310;2023-09-19T06:48:01;4.13;;;2.70;;
53594;SDS011;39479;45.720;11.310;2023-09-19T06:50:28;6.80;;;2.75;;
53594;SDS011;39479;45.720;11.310;2023-09-19T06:52:55;5.05;;;3.00;;
53594;SDS011;39479;45.720;11.310;2023-09-19T06:55:24;4.72;;;2.92;;
53594;SDS011;39479;45.720;11.310;2023-09-19T06:57:53;7.13;;;3.38;;
53594;SDS011;39479;45.720;11.310;2023-09-19T07:00:19;8.25;;;3.30;;
53594;SDS011;39479;45.720;11.310;2023-09-19T07:02:59;7.30;;;3.00;;
53594;SDS011;39479;45.720;11.310;2023-09-19T07:05:29;8.02;;;3.20;;
53594;SDS011;39479;45.720;11.310;2023-09-19T07:07:56;5.88;;;3.30;;
53594;SDS011;39479;45.720;11.310;2023-09-19T07:10:26;6.65;;;3.55;;
53594;SDS011;39479;45.720;11.310;2023-09-19T07:15:22;6.70;;;3.50;;
53594;SDS011;39479;45.720;11.310;2023-09-19T07:17:49;5.88;;;3.38;;
53594;SDS011;39479;45.720;11.310;2023-09-19T07:20:16;6.35;;;3.45;;
53594;SDS011;39479;45.720;11.310;2023-09-19T07:22:42;8.43;;;3.78;;
53594;SDS011;39479;45.720;11.310;2023-09-19T07:25:08;7.97;;;3.70;;
53594;SDS011;39479;45.720;11.310;2023-09-19T07:27:34;7.13;;;3.17;;
53594;SDS011;39479;45.720;11.310;2023-09-19T07:30:00;8.90;;;3.38;;
53594;SDS011;39479;45.720;11.310;2023-09-19T07:32:26;6.60;;;3.30;;
53594;SDS011;39479;45.720;11.310;2023-09-19T07:34:52;6.03;;;3.58;;
53594;SDS011;39479;45.720;11.310;2023-09-19T07:37:20;6.22;;;3.55;;
53594;SDS011;39479;45.720;11.310;2023-09-19T07:39:46;7.22;;;3.40;;
53594;SDS011;39479;45.720;11.310;2023-09-19T07:42:12;7.88;;;3.65;;
53594;SDS011;39479;45.720;11.310;2023-09-19T07:44:43;8.07;;;4.22;;
53594;SDS011;39479;45.720;11.310;2023-09-19T07:47:13;7.80;;;3.85;;
53594;SDS011;39479;45.720;11.310;2023-09-19T07:49:39;10.27;;;3.70;;
53594;SDS011;39479;45.720;11.310;2023-09-19T07:52:07;6.13;;;3.38;;
53594;SDS011;39479;45.720;11.310;2023-09-19T07:54:33;6.28;;;3.75;;
53594;SDS011;39479;45.720;11.310;2023-09-19T07:57:01;9.88;;;3.95;;
53594;SDS011;39479;45.720;11.310;2023-09-19T07:59:27;5.10;;;4.03;;
53594;SDS011;39479;45.720;11.310;2023-09-19T08:01:53;7.60;;;3.97;;
53594;SDS011;39479;45.720;11.310;2023-09-19T08:04:19;8.48;;;3.75;;
53594;SDS011;39479;45.720;11.310;2023-09-19T08:06:45;7.80;;;4.10;;
53594;SDS011;39479;45.720;11.310;2023-09-19T08:09:11;7.03;;;3.70;;
53594;SDS011;39479;45.720;11.310;2023-09-19T08:11:42;11.43;;;4.03;;
53594;SDS011;39479;45.720;11.310;2023-09-19T08:14:08;8.05;;;3.75;;
53594;SDS011;39479;45.720;11.310;2023-09-19T08:16:39;11.27;;;3.40;;
53594;SDS011;39479;45.720;11.310;2023-09-19T08:19:05;5.57;;;3.10;;
53594;SDS011;39479;45.720;11.310;2023-09-19T08:21:31;7.07;;;3.20;;
53594;SDS011;39479;45.720;11.310;2023-09-19T08:23:57;7.35;;;2.80;;
53594;SDS011;39479;45.720;11.310;2023-09-19T08:26:23;6.20;;;3.08;;
53594;SDS011;39479;45.720;11.310;2023-09-19T08:28:50;6.30;;;3.08;;
53594;SDS011;39479;45.720;11.310;2023-09-19T08:31:16;7.65;;;3.20;;
53594;SDS011;39479;45.720;11.310;2023-09-19T08:33:42;6.15;;;3.22;;
53594;SDS011;39479;45.720;11.310;2023-09-19T08:36:13;7.68;;;3.40;;
53594;SDS011;39479;45.720;11.310;2023-09-19T08:38:40;7.57;;;4.32;;
53594;SDS011;39479;45.720;11.310;2023-09-19T08:41:06;7.05;;;4.35;;
53594;SDS011;39479;45.720;11.310;2023-09-19T08:43:33;6.38;;;3.47;;
53594;SDS011;39479;45.720;11.310;2023-09-19T08:48:31;6.05;;;3.20;;
53594;SDS011;39479;45.720;11.310;2023-09-19T08:51:07;8.50;;;3.33;;
53594;SDS011;39479;45.720;11.310;2023-09-19T08:56:08;5.13;;;3.60;;
53594;SDS011;39479;45.720;11.310;2023-09-19T08:58:41;6.63;;;3.33;;
53594;SDS011;39479;45.720;11.310;2023-09-19T09:01:10;5.18;;;3.20;;
53594;SDS011;39479;45.720;11.310;2023-09-19T09:03:38;6.82;;;3.60;;
53594;SDS011;39479;45.720;11.310;2023-09-19T09:06:07;8.18;;;4.38;;
53594;SDS011;39479;45.720;11.310;2023-09-19T09:08:38;6.65;;;3.60;;
53594;SDS011;39479;45.720;11.310;2023-09-19T09:11:04;7.70;;;4.38;;
53594;SDS011;39479;45.720;11.310;2023-09-19T09:13:33;7.20;;;3.55;;
53594;SDS011;39479;45.720;11.310;2023-09-19T09:16:00;8.13;;;3.92;;
53594;SDS011;39479;45.720;11.310;2023-09-19T09:18:26;9.65;;;3.85;;
53594;SDS011;39479;45.720;11.310;2023-09-19T09:20:54;5.90;;;3.50;;
53594;SDS011;39479;45.720;11.310;2023-09-19T09:23:21;6.93;;;3.55;;
53594;SDS011;39479;45.720;11.310;2023-09-19T09:25:48;7.88;;;4.00;;
53594;SDS011;39479;45.720;11.310;2023-09-19T09:28:18;7.82;;;4.60;;
53594;SDS011;39479;45.720;11.310;2023-09-19T09:30:45;8.10;;;4.82;;
53594;SDS011;39479;45.720;11.310;2023-09-19T09:33:12;8.57;;;5.35;;
53594;SDS011;39479;45.720;11.310;2023-09-19T09:38:25;4.82;;;4.18;;
53594;SDS011;39479;45.720;11.310;2023-09-19T09:40:58;10.18;;;4.93;;
53594;SDS011;39479;45.720;11.310;2023-09-19T09:43:25;7.40;;;4.68;;
53594;SDS011;39479;45.720;11.310;2023-09-19T09:46:14;6.00;;;4.40;;
53594;SDS011;39479;45.720;11.310;2023-09-19T09:48:55;8.07;;;4.60;;
53594;SDS011;39479;45.720;11.310;2023-09-19T09:52:00;7.20;;;4.55;;
53594;SDS011;39479;45.720;11.310;2023-09-19T09:54:30;6.70;;;4.57;;
53594;SDS011;39479;45.720;11.310;2023-09-19T09:57:09;7.85;;;4.30;;
53594;SDS011;39479;45.720;11.310;2023-09-19T10:04:54;9.48;;;5.22;;
53594;SDS011;39479;45.720;11.310;2023-09-19T10:07:38;7.00;;;4.70;;
53594;SDS011;39479;45.720;11.310;2023-09-19T10:10:07;7.47;;;4.82;;
53594;SDS011;39479;45.720;11.310;2023-09-19T10:12:48;7.03;;;4.75;;
53594;SDS011;39479;45.720;11.310;2023-09-19T10:15:16;5.43;;;4.05;;
53594;SDS011;39479;45.720;11.310;2023-09-19T10:17:45;6.78;;;5.03;;
53594;SDS011;39479;45.720;11.310;2023-09-19T10:20:15;5.90;;;4.07;;
53594;SDS011;39479;45.720;11.310;2023-09-19T10:23:03;8.13;;;4.65;;
53594;SDS011;39479;45.720;11.310;2023-09-19T10:25:34;9.65;;;6.05;;
53594;SDS011;39479;45.720;11.310;2023-09-19T10:28:02;6.57;;;4.40;;
53594;SDS011;39479;45.720;11.310;2023-09-19T10:30:28;9.82;;;5.55;;
53594;SDS011;39479;45.720;11.310;2023-09-19T10:33:02;5.38;;;4.50;;
53594;SDS011;39479;45.720;11.310;2023-09-19T10:35:29;6.63;;;4.30;;
53594;SDS011;39479;45.720;11.310;2023-09-19T10:37:57;5.45;;;4.00;;
53594;SDS011;39479;45.720;11.310;2023-09-19T10:40:23;7.47;;;4.85;;
53594;SDS011;39479;45.720;11.310;2023-09-19T10:42:57;6.13;;;3.90;;
53594;SDS011;39479;45.720;11.310;2023-09-19T10:45:26;6.90;;;4.57;;
53594;SDS011;39479;45.720;11.310;2023-09-19T10:47:54;6.97;;;4.50;;
53594;SDS011;39479;45.720;11.310;2023-09-19T10:50:21;8.07;;;3.88;;
53594;SDS011;39479;45.720;11.310;2023-09-19T10:52:47;5.45;;;3.78;;
53594;SDS011;39479;45.720;11.310;2023-09-19T10:55:17;7.97;;;4.28;;
53594;SDS011;39479;45.720;11.310;2023-09-19T10:57:44;6.40;;;3.67;;
53594;SDS011;39479;45.720;11.310;2023-09-19T11:00:11;6.95;;;4.55;;
53594;SDS011;39479;45.720;11.310;2023-09-19T11:05:32;9.25;;;5.25;;
53594;SDS011;39479;45.720;11.310;2023-09-19T11:07:59;7.57;;;4.68;;
53594;SDS011;39479;45.720;11.310;2023-09-19T11:10:47;8.65;;;5.13;;
53594;SDS011;39479;45.720;11.310;2023-09-19T11:13:33;5.90;;;4.20;;
53594;SDS011;39479;45.720;11.310;2023-09-19T11:16:02;5.75;;;4.18;;
53594;SDS011;39479;45.720;11.310;2023-09-19T11:26:40;7.18;;;4.63;;
53594;SDS011;39479;45.720;11.310;2023-09-19T11:29:25;7.72;;;4.35;;
53594;SDS011;39479;45.720;11.310;2023-09-19T11:31:52;7.47;;;4.32;;
53594;SDS011;39479;45.720;11.310;2023-09-19T11:39:37;8.20;;;4.60;;
53594;SDS011;39479;45.720;11.310;2023-09-19T11:44:48;7.60;;;4.55;;
53594;SDS011;39479;45.720;11.310;2023-09-19T11:47:17;7.45;;;4.60;;
53594;SDS011;39479;45.720;11.310;2023-09-19T11:49:44;7.53;;;4.85;;
53594;SDS011;39479;45.720;11.310;2023-09-19T11:52:10;7.55;;;4.28;;
53594;SDS011;39479;45.720;11.310;2023-09-19T11:54:39;9.32;;;4.50;;
53594;SDS011;39479;45.720;11.310;2023-09-19T11:57:06;7.50;;;4.43;;
53594;SDS011;39479;45.720;11.310;2023-09-19T11:59:33;8.27;;;5.50;;
53594;SDS011;39479;45.720;11.310;2023-09-19T12:02:03;9.15;;;4.57;;
53594;SDS011;39479;45.720;11.310;2023-09-19T12:07:06;8.90;;;5.47;;
53594;SDS011;39479;45.720;11.310;2023-09-19T12:09:37;7.00;;;4.93;;
53594;SDS011;39479;45.720;11.310;2023-09-19T12:12:03;7.60;;;4.65;;
53594;SDS011;39479;45.720;11.310;2023-09-19T12:14:29;8.18;;;4.85;;
53594;SDS011;39479;45.720;11.310;2023-09-19T12:16:56;8.15;;;5.05;;
53594;SDS011;39479;45.720;11.310;2023-09-19T12:19:25;9.38;;;5.40;;
53594;SDS011;39479;45.720;11.310;2023-09-19T12:22:09;6.28;;;4.85;;
53594;SDS011;39479;45.720;11.310;2023-09-19T12:24:35;10.00;;;5.13;;
53594;SDS011;39479;45.720;11.310;2023-09-19T12:27:06;6.40;;;5.07;;
53594;SDS011;39479;45.720;11.310;2023-09-19T12:29:41;8.38;;;5.43;;
53594;SDS011;39479;45.720;11.310;2023-09-19T12:32:08;8.52;;;5.78;;
53594;SDS011;39479;45.720;11.310;2023-09-19T12:34:34;6.60;;;5.00;;
53594;SDS011;39479;45.720;11.310;2023-09-19T12:37:04;6.70;;;5.10;;
53594;SDS011;39479;45.720;11.310;2023-09-19T12:39:36;7.28;;;4.97;;
53594;SDS011;39479;45.720;11.310;2023-09-19T12:42:02;8.80;;;4.68;;
53594;SDS011;39479;45.720;11.310;2023-09-19T12:44:31;9.10;;;4.72;;
53594;SDS011;39479;45.720;11.310;2023-09-19T12:47:00;9.73;;;4.53;;
53594;SDS011;39479;45.720;11.310;2023-09-19T12:49:26;10.80;;;6.32;;
53594;SDS011;39479;45.720;11.310;2023-09-19T12:51:54;7.57;;;4.78;;
53594;SDS011;39479;45.720;11.310;2023-09-19T12:54:23;9.07;;;5.82;;
53594;SDS011;39479;45.720;11.310;2023-09-19T12:56:50;5.82;;;3.97;;
53594;SDS011;39479;45.720;11.310;2023-09-19T12:59:16;8.18;;;5.07;;
53594;SDS011;39479;45.720;11.310;2023-09-19T13:01:42;8.60;;;5.35;;
53594;SDS011;39479;45.720;11.310;2023-09-19T13:06:47;6.80;;;4.63;;
53594;SDS011;39479;45.720;11.310;2023-09-19T13:09:17;7.93;;;4.75;;
53594;SDS011;39479;45.720;11.310;2023-09-19T13:11:43;6.28;;;4.22;;
53594;SDS011;39479;45.720;11.310;2023-09-19T13:14:20;8.63;;;4.78;;
53594;SDS011;39479;45.720;11.310;2023-09-19T13:22:02;6.65;;;4.30;;
53594;SDS011;39479;45.720;11.310;2023-09-19T13:24:28;8.63;;;4.25;;
53594;SDS011;39479;45.720;11.310;2023-09-19T13:26:55;8.90;;;4.78;;
53594;SDS011;39479;45.720;11.310;2023-09-19T13:29:22;4.82;;;4.05;;
53594;SDS011;39479;45.720;11.310;2023-09-19T13:31:48;6.80;;;4.10;;
53594;SDS011;39479;45.720;11.310;2023-09-19T13:34:15;9.05;;;5.00;;
53594;SDS011;39479;45.720;11.310;2023-09-19T13:36:42;7.93;;;4.50;;
53594;SDS011;39479;45.720;11.310;2023-09-19T13:39:08;5.93;;;4.25;;
53594;SDS011;39479;45.720;11.310;2023-09-19T13:41:34;8.90;;;4.43;;
53594;SDS011;39479;45.720;11.310;2023-09-19T13:44:04;6.50;;;4.00;;
53594;SDS011;39479;45.720;11.310;2023-09-19T13:46:30;5.70;;;4.10;;
53594;SDS011;39479;45.720;11.310;2023-09-19T13:49:00;6.13;;;3.83;;
53594;SDS011;39479;45.720;11.310;2023-09-19T13:51:28;8.30;;;4.15;;
53594;SDS011;39479;45.720;11.310;2023-09-19T13:53:55;7.20;;;4.68;;
53594;SDS011;39479;45.720;11.310;2023-09-19T13:56:21;4.72;;;4.10;;
53594;SDS011;39479;45.720;11.310;2023-09-19T13:58:47;8.13;;;4.40;;
53594;SDS011;39479;45.720;11.310;2023-09-19T14:01:13;6.88;;;4.47;;
53594;SDS011;39479;45.720;11.310;2023-09-19T14:03:39;6.97;;;4.30;;
53594;SDS011;39479;45.720;11.310;2023-09-19T14:06:05;8.30;;;4.25;;
53594;SDS011;39479;45.720;11.310;2023-09-19T14:08:32;5.93;;;4.68;;
53594;SDS011;39479;45.720;11.310;2023-09-19T14:11:05;6.22;;;4.85;;
53594;SDS011;39479;45.720;11.310;2023-09-19T14:13:33;6.03;;;4.40;;
53594;SDS011;39479;45.720;11.310;2023-09-19T14:16:05;7.28;;;4.50;;
53594;SDS011;39479;45.720;11.310;2023-09-19T14:18:31;5.40;;;4.25;;
53594;SDS011;39479;45.720;11.310;2023-09-19T14:20:58;8.23;;;4.63;;
53594;SDS011;39479;45.720;11.310;2023-09-19T14:23:24;8.13;;;4.53;;
53594;SDS011;39479;45.720;11.310;2023-09-19T14:25:51;6.10;;;4.60;;
53594;SDS011;39479;45.720;11.310;2023-09-19T14:28:18;7.38;;;4.43;;
53594;SDS011;39479;45.720;11.310;2023-09-19T14:30:44;8.00;;;4.68;;
53594;SDS011;39479;45.720;11.310;2023-09-19T14:33:11;8.18;;;4.78;;
53594;SDS011;39479;45.720;11.310;2023-09-19T14:35:37;6.70;;;4.72;;
53594;SDS011;39479;45.720;11.310;2023-09-19T14:38:03;5.90;;;4.60;;
53594;SDS011;39479;45.720;11.310;2023-09-19T14:40:29;8.00;;;5.38;;
53594;SDS011;39479;45.720;11.310;2023-09-19T14:42:56;9.48;;;4.72;;
53594;SDS011;39479;45.720;11.310;2023-09-19T14:45:22;6.50;;;4.68;;
53594;SDS011;39479;45.720;11.310;2023-09-19T14:47:50;5.97;;;4.90;;
53594;SDS011;39479;45.720;11.310;2023-09-19T14:50:21;5.63;;;5.03;;
53594;SDS011;39479;45.720;11.310;2023-09-19T14:52:47;6.28;;;4.57;;
53594;SDS011;39479;45.720;11.310;2023-09-19T14:55:15;6.30;;;4.85;;
53594;SDS011;39479;45.720;11.310;2023-09-19T14:57:41;7.65;;;4.80;;
53594;SDS011;39479;45.720;11.310;2023-09-19T15:00:09;8.18;;;4.75;;
53594;SDS011;39479;45.720;11.310;2023-09-19T15:02:37;7.32;;;4.50;;
53594;SDS011;39479;45.720;11.310;2023-09-19T15:05:04;6.90;;;5.38;;
53594;SDS011;39479;45.720;11.310;2023-09-19T15:07:31;11.32;;;7.93;;
53594;SDS011;39479;45.720;11.310;2023-09-19T15:09:57;8.65;;;6.05;;
53594;SDS011;39479;45.720;11.310;2023-09-19T15:12:23;6.53;;;4.75;;
53594;SDS011;39479;45.720;11.310;2023-09-19T15:14:49;7.50;;;4.88;;
53594;SDS011;39479;45.720;11.310;2023-09-19T15:17:17;6.40;;;4.53;;
53594;SDS011;39479;45.720;11.310;2023-09-19T15:19:44;6.57;;;4.75;;
53594;SDS011;39479;45.720;11.310;2023-09-19T15:22:10;7.25;;;4.88;;
53594;SDS011;39479;45.720;11.310;2023-09-19T15:24:37;7.00;;;4.88;;
53594;SDS011;39479;45.720;11.310;2023-09-19T15:27:04;7.13;;;4.78;;
53594;SDS011;39479;45.720;11.310;2023-09-19T15:29:30;8.60;;;5.45;;
53594;SDS011;39479;45.720;11.310;2023-09-19T15:31:57;5.70;;;4.47;;
53594;SDS011;39479;45.720;11.310;2023-09-19T15:34:26;6.55;;;5.10;;
53594;SDS011;39479;45.720;11.310;2023-09-19T15:36:53;7.50;;;4.55;;
53594;SDS011;39479;45.720;11.310;2023-09-19T15:39:19;11.27;;;5.47;;
53594;SDS011;39479;45.720;11.310;2023-09-19T15:41:47;6.25;;;5.63;;